createdAt,value
2018-05-12T00:59:35.634Z,11.10
2018-05-12T01:02:03.124Z,11.00
2018-05-12T01:04:30.629Z,11.00
2018-05-12T01:06:58.128Z,11.00
2018-05-12T01:09:25.965Z,10.90
2018-05-12T01:11:53.458Z,10.90
2018-05-12T01:14:20.958Z,10.90
2018-05-12T01:16:48.812Z,10.80
2018-05-12T01:19:16.320Z,10.80
2018-05-12T01:21:43.825Z,10.90
2018-05-12T01:24:11.734Z,10.90
2018-05-12T01:26:39.245Z,10.80
2018-05-12T01:29:07.522Z,10.80
2018-05-12T01:31:35.786Z,10.80
2018-05-12T01:34:04.075Z,10.80
2018-05-12T01:36:32.873Z,10.80
2018-05-12T01:39:00.382Z,10.70
2018-05-12T01:41:27.876Z,10.70
2018-05-12T01:43:56.378Z,10.70
2018-05-12T01:46:23.888Z,10.70
2018-05-12T01:48:51.387Z,10.70
2018-05-12T01:51:18.892Z,10.70
2018-05-12T01:53:46.385Z,10.70
2018-05-12T01:56:14.892Z,10.60
2018-05-12T01:58:42.368Z,10.60
2018-05-12T02:01:10.033Z,10.60
2018-05-12T02:03:37.538Z,10.60
2018-05-12T02:06:05.821Z,10.50
2018-05-12T02:08:34.333Z,10.50
2018-05-12T02:11:01.829Z,10.50
2018-05-12T02:13:29.329Z,10.50
2018-05-12T02:15:56.893Z,10.40
2018-05-12T02:18:24.621Z,10.40
2018-05-12T02:20:52.599Z,10.30
2018-05-12T02:23:20.855Z,10.40
2018-05-12T02:25:48.340Z,10.30
2018-05-12T02:28:15.864Z,10.30
2018-05-12T02:30:43.365Z,10.30
2018-05-12T02:33:11.624Z,10.30
2018-05-12T02:35:39.180Z,10.30
2018-05-12T02:38:07.166Z,10.30
2018-05-12T02:40:34.695Z,10.30
2018-05-12T02:43:02.180Z,10.30
2018-05-12T02:45:30.440Z,10.30
2018-05-12T02:47:57.947Z,10.30
2018-05-12T02:50:25.451Z,10.30
2018-05-12T02:52:52.961Z,10.20
2018-05-12T02:55:20.992Z,10.20
2018-05-12T02:57:49.252Z,10.20
2018-05-12T03:00:16.785Z,10.10
2018-05-12T03:02:44.691Z,10.20
2018-05-12T03:05:13.045Z,10.20
2018-05-12T03:07:40.557Z,10.10
2018-05-12T03:10:08.093Z,10.10
2018-05-12T03:12:36.355Z,10.10
2018-05-12T03:15:03.847Z,10.00
2018-05-12T03:17:31.357Z,10.00
2018-05-12T03:19:59.103Z,10.00
2018-05-12T03:22:26.762Z,10.00
2018-05-12T03:24:54.794Z,10.00
2018-05-12T03:27:22.298Z,10.10
2018-05-12T03:29:49.834Z,10.10
2018-05-12T04:04:59.104Z,10.40
2018-05-12T04:07:38.268Z,10.40
2018-05-12T04:10:20.482Z,10.50
2018-05-12T04:12:48.744Z,10.70
2018-05-12T04:15:17.591Z,10.80
2018-05-12T04:17:45.244Z,10.70
2018-05-12T04:20:12.738Z,10.90
2018-05-12T04:22:40.235Z,11.00
2018-05-12T04:25:08.238Z,11.10
2018-05-12T04:27:35.728Z,11.20
2018-05-12T04:30:03.286Z,11.30
2018-05-12T04:32:30.804Z,11.50
2018-05-12T04:34:58.311Z,11.50
2018-05-12T04:37:26.904Z,11.70
2018-05-12T04:39:54.587Z,11.70
2018-05-12T04:42:22.274Z,11.80
2018-05-12T04:44:49.762Z,12.10
2018-05-12T04:47:17.248Z,12.20
2018-05-12T04:49:44.775Z,12.40
2018-05-12T04:52:12.580Z,12.60
2018-05-12T04:54:40.143Z,12.70
2018-05-12T04:57:07.640Z,12.90
2018-05-12T04:59:35.672Z,13.00
2018-05-12T05:02:03.200Z,12.80
2018-05-12T05:04:30.724Z,12.80
2018-05-12T05:06:58.213Z,12.80
2018-05-12T05:09:26.051Z,12.90
2018-05-12T05:11:53.576Z,13.10
2018-05-12T05:14:21.372Z,13.20
2018-05-12T05:16:48.885Z,13.40
2018-05-12T05:19:17.284Z,13.80
2018-05-12T05:21:45.318Z,13.80
2018-05-12T05:24:13.612Z,14.40
2018-05-12T05:26:42.101Z,14.70
2018-05-12T05:29:10.134Z,14.70
2018-05-12T05:31:37.624Z,14.80
2018-05-12T05:34:05.124Z,15.00
2018-05-12T05:36:32.610Z,15.20
2018-05-12T05:39:00.143Z,15.50
2018-05-12T05:41:27.687Z,15.80
2018-05-12T05:43:55.253Z,16.00
2018-05-12T05:46:22.761Z,16.30
2018-05-12T05:48:51.278Z,16.90
2018-05-12T05:51:18.781Z,16.90
2018-05-12T05:53:46.309Z,17.90
2018-05-12T05:56:13.830Z,19.30
2018-05-12T05:58:41.354Z,20.30
2018-05-12T06:01:09.139Z,21.90
2018-05-12T06:03:36.675Z,23.10
2018-05-12T06:06:04.790Z,23.70
2018-05-12T06:08:32.325Z,24.50
2018-05-12T06:11:00.593Z,25.90
2018-05-12T06:13:28.085Z,25.90
2018-05-12T06:15:55.587Z,26.50
2018-05-12T06:18:23.072Z,26.30
2018-05-12T06:20:51.341Z,26.80
2018-05-12T06:23:19.358Z,26.70
2018-05-12T06:25:46.872Z,26.70
2018-05-12T06:28:14.762Z,25.10
2018-05-12T06:30:42.305Z,25.00
2018-05-12T06:33:10.554Z,26.50
2018-05-12T06:35:38.079Z,26.40
2018-05-12T06:38:05.574Z,26.90
2018-05-12T06:40:33.628Z,28.00
2018-05-12T06:43:01.117Z,27.50
2018-05-12T06:45:28.701Z,27.80
2018-05-12T06:47:56.197Z,29.20
2018-05-12T06:50:23.722Z,28.70
2018-05-12T06:52:51.583Z,29.50
2018-05-12T06:55:19.188Z,28.90
2018-05-12T06:57:47.034Z,28.70
2018-05-12T07:00:14.571Z,29.00
2018-05-12T07:02:42.141Z,29.40
2018-05-12T07:05:09.672Z,29.90
2018-05-12T07:07:37.212Z,30.30
2018-05-12T07:10:05.293Z,30.50
2018-05-12T07:12:33.683Z,30.30
2018-05-12T07:15:01.975Z,29.50
2018-05-12T07:17:29.887Z,29.50
2018-05-12T07:19:57.418Z,29.90
2018-05-12T07:22:24.931Z,30.40
2018-05-12T07:24:52.426Z,30.80
2018-05-12T07:27:19.967Z,31.60
2018-05-12T07:29:48.051Z,31.70
2018-05-12T07:32:15.591Z,29.90
2018-05-12T07:34:43.958Z,30.10
2018-05-12T07:37:11.559Z,30.10
2018-05-12T07:39:39.087Z,30.40
2018-05-12T07:42:07.405Z,31.60
2018-05-12T07:44:34.923Z,31.60
2018-05-12T07:47:02.550Z,31.80
2018-05-12T07:49:31.361Z,32.20
2018-05-12T07:51:59.625Z,32.10
2018-05-12T07:54:27.118Z,32.10
2018-05-12T07:56:54.704Z,30.80
2018-05-12T07:59:22.261Z,31.10
2018-05-12T08:01:50.019Z,31.50
2018-05-12T08:04:17.534Z,31.60
2018-05-12T08:06:46.294Z,32.30
2018-05-12T08:09:13.859Z,32.20
2018-05-12T08:11:41.399Z,31.40
2018-05-12T08:14:08.877Z,31.70
2018-05-12T08:16:36.365Z,31.70
2018-05-12T08:19:05.179Z,31.40
2018-05-12T08:21:32.745Z,31.40
2018-05-12T08:24:00.252Z,30.80
2018-05-12T08:26:28.415Z,30.60
2018-05-12T08:28:55.917Z,30.90
2018-05-12T08:31:23.541Z,31.20
2018-05-12T08:33:51.057Z,32.10
2018-05-12T08:36:18.586Z,32.40
2018-05-12T08:38:46.333Z,32.60
2018-05-12T08:41:15.160Z,31.20
2018-05-12T08:43:42.679Z,31.20
2018-05-12T08:46:10.189Z,30.10
2018-05-12T08:48:37.690Z,30.30
2018-05-12T08:51:05.208Z,30.20
2018-05-12T08:53:32.703Z,30.90
2018-05-12T14:07:11.094Z,27.00
2018-05-12T14:09:39.015Z,26.90
2018-05-12T14:12:06.523Z,27.20
2018-05-12T14:14:34.032Z,27.50
2018-05-12T14:17:01.526Z,27.40
2018-05-12T14:19:29.021Z,27.40
2018-05-12T14:21:57.616Z,27.50
2018-05-12T14:24:26.603Z,27.70
2018-05-12T14:26:54.892Z,27.70
2018-05-12T14:29:22.378Z,27.70
2018-05-12T14:31:50.481Z,27.50
2018-05-12T14:34:17.985Z,27.70
2018-05-12T14:36:45.588Z,27.60
2018-05-12T14:39:14.017Z,27.50
2018-05-12T14:41:41.521Z,27.20
2018-05-12T14:44:09.544Z,26.80
2018-05-12T14:46:37.056Z,26.60
2018-05-12T14:49:04.660Z,26.20
2018-05-12T14:51:32.755Z,25.90
2018-05-12T14:54:00.261Z,26.00
2018-05-12T14:56:27.857Z,26.20
2018-05-12T14:58:55.357Z,26.40
2018-05-12T15:01:22.884Z,26.40
2018-05-12T15:03:55.006Z,26.50
2018-05-12T15:06:24.939Z,26.80
2018-05-12T15:08:53.106Z,26.80
2018-05-12T15:11:22.113Z,26.90
2018-05-12T15:13:52.976Z,27.00
2018-05-12T15:16:21.045Z,27.00
2018-05-12T15:18:49.837Z,26.80
2018-05-12T15:21:17.457Z,26.90
2018-05-12T15:23:45.146Z,26.70
2018-05-12T15:26:12.793Z,26.70
2018-05-12T15:28:41.044Z,26.50
2018-05-12T15:31:08.633Z,26.50
2018-05-12T15:33:36.135Z,26.40
2018-05-12T15:36:03.677Z,26.40
2018-05-12T15:38:31.820Z,26.40
2018-05-12T15:40:59.336Z,26.30
2018-05-12T15:43:26.832Z,26.20
2018-05-12T15:45:54.330Z,26.20
2018-05-12T15:48:21.961Z,26.20
2018-05-12T15:50:49.587Z,26.00
2018-05-12T15:53:17.064Z,25.80
2018-05-12T15:55:45.165Z,25.80
2018-05-12T15:58:12.687Z,25.80
2018-05-12T16:00:40.936Z,25.80
2018-05-12T16:03:08.536Z,25.80
2018-05-12T16:05:36.601Z,25.70
2018-05-12T16:08:04.302Z,25.60
2018-05-12T16:10:32.145Z,25.70
2018-05-12T16:12:59.916Z,25.70
2018-05-12T16:15:27.421Z,25.80
2018-05-12T16:17:54.965Z,26.00
2018-05-12T16:20:22.635Z,26.00
2018-05-12T16:22:50.757Z,26.10
2018-05-12T16:25:18.312Z,26.00
2018-05-12T16:27:45.827Z,25.90
2018-05-12T16:30:13.745Z,25.80
2018-05-12T16:32:41.833Z,25.70
2018-05-12T16:35:09.379Z,25.60
2018-05-12T16:37:37.292Z,25.40
2018-05-12T16:40:05.444Z,25.30
2018-05-12T16:42:32.937Z,25.30
2018-05-12T16:45:00.425Z,25.30
2018-05-12T16:47:27.928Z,25.10
2018-05-12T16:49:55.452Z,25.00
2018-05-12T16:52:22.986Z,24.90
2018-05-12T16:54:50.501Z,24.80
2018-05-12T16:57:18.000Z,24.80
2018-05-12T16:59:45.496Z,24.80
2018-05-12T17:02:12.997Z,24.90
2018-05-12T17:04:41.232Z,25.10
2018-05-12T17:07:08.757Z,25.10
2018-05-12T17:09:37.029Z,25.00
2018-05-12T17:12:05.281Z,24.90
2018-05-12T17:14:32.766Z,24.90
2018-05-12T17:17:01.167Z,24.80
2018-05-12T17:19:28.671Z,24.70
2018-05-12T17:21:56.910Z,24.70
2018-05-12T17:24:24.467Z,24.70
2018-05-12T17:26:52.212Z,24.60
2018-05-12T17:29:20.740Z,24.40
2018-05-12T17:31:49.048Z,24.30
2018-05-12T17:34:16.854Z,24.30
2018-05-12T17:36:44.352Z,24.30
2018-05-12T17:39:12.233Z,24.30
2018-05-12T17:41:39.765Z,24.20
2018-05-12T17:44:07.271Z,24.10
2018-05-12T17:46:35.570Z,24.10
2018-05-12T17:49:03.063Z,24.10
2018-05-12T17:51:30.570Z,23.90
2018-05-12T17:53:58.839Z,23.50
2018-05-12T17:56:27.116Z,23.50
2018-05-12T17:58:54.620Z,23.40
2018-05-12T18:01:22.129Z,23.30
2018-05-12T18:03:50.600Z,23.10
2018-05-12T18:06:18.842Z,23.10
2018-05-12T18:08:46.562Z,23.00
2018-05-12T18:11:14.249Z,22.90
2018-05-12T18:13:41.740Z,22.80
2018-05-12T18:16:09.232Z,22.70
2018-05-12T18:18:37.693Z,22.60
2018-05-12T18:21:05.238Z,22.40
2018-05-12T18:23:32.762Z,22.40
2018-05-12T18:26:00.368Z,22.30
2018-05-12T18:28:28.712Z,22.10
2018-05-12T18:31:03.993Z,22.10
2018-05-12T18:33:31.930Z,22.00
2018-05-12T18:35:59.429Z,21.90
2018-05-12T18:38:27.771Z,21.70
2018-05-12T18:40:55.373Z,21.70
2018-05-12T18:43:23.680Z,21.50
2018-05-12T18:45:51.176Z,21.50
2018-05-12T18:48:19.226Z,21.40
2018-05-12T18:50:46.785Z,21.30
2018-05-12T18:53:14.258Z,21.20
2018-05-12T18:55:41.756Z,21.10
2018-05-12T18:58:09.253Z,21.10
2018-05-12T19:00:36.794Z,21.00
2018-05-12T19:03:04.287Z,20.90
2018-05-12T19:05:31.781Z,20.80
2018-05-12T19:08:00.044Z,20.70
2018-05-12T19:10:28.389Z,20.70
2018-05-12T19:12:55.905Z,20.70
2018-05-12T19:15:23.444Z,20.60
2018-05-12T19:17:50.949Z,20.50
2018-05-12T19:20:18.480Z,20.40
2018-05-12T19:22:45.974Z,20.40
2018-05-12T19:25:13.502Z,20.30
2018-05-12T19:27:41.753Z,20.10
2018-05-12T19:30:09.257Z,20.10
2018-05-12T19:32:36.789Z,20.00
2018-05-12T19:35:05.797Z,19.90
2018-05-12T19:37:33.305Z,19.90
2018-05-12T19:40:00.866Z,19.80
2018-05-12T19:42:28.368Z,19.80
2018-05-12T19:44:55.916Z,19.80
2018-05-12T19:47:23.417Z,19.70
2018-05-12T19:49:51.323Z,19.60
2018-05-12T19:52:18.889Z,19.60
2018-05-12T19:54:47.150Z,19.50
2018-05-12T19:57:14.961Z,19.50
2018-05-12T19:59:42.462Z,19.40
2018-05-12T20:02:09.984Z,19.40
2018-05-12T20:04:37.962Z,19.30
2018-05-12T20:07:05.520Z,19.20
2018-05-12T20:09:33.036Z,19.20
2018-05-12T20:12:01.324Z,19.00
2018-05-12T20:14:29.606Z,18.90
2018-05-12T20:16:57.914Z,18.80
2018-05-12T20:19:25.432Z,18.70
2018-05-12T20:21:53.698Z,18.60
2018-05-12T20:24:21.982Z,18.60
2018-05-12T20:26:50.249Z,18.50
2018-05-12T20:29:18.511Z,18.40
2018-05-12T20:31:46.728Z,18.40
2018-05-12T20:34:14.256Z,18.40
2018-05-12T20:36:49.869Z,18.30
2018-05-12T20:39:17.393Z,18.30
2018-05-12T20:41:44.878Z,18.30
2018-05-12T20:44:12.393Z,18.30
2018-05-12T20:46:40.815Z,18.30
2018-05-12T20:49:08.376Z,18.20
2018-05-12T20:51:36.284Z,18.30
2018-05-12T20:54:03.785Z,18.20
2018-05-12T20:56:31.291Z,18.20
2018-05-12T20:58:58.892Z,18.20
2018-05-12T21:01:26.454Z,18.10
2018-05-12T21:03:53.963Z,18.00
2018-05-12T21:06:21.473Z,17.90
2018-05-12T21:08:49.117Z,17.90
2018-05-12T21:11:16.625Z,17.80
2018-05-12T21:13:44.698Z,17.70
2018-05-12T21:16:12.349Z,17.70
2018-05-12T21:18:39.865Z,17.60
2018-05-12T21:21:08.275Z,17.50
2018-05-12T21:23:35.857Z,17.40
2018-05-12T21:26:03.315Z,17.30
2018-05-12T21:28:30.862Z,17.30
2018-05-12T21:30:58.357Z,17.20
2018-05-12T21:33:25.868Z,17.00
2018-05-12T21:35:54.056Z,17.00
2018-05-12T21:38:21.689Z,16.80
2018-05-12T21:40:49.576Z,16.70
2018-05-12T21:43:17.057Z,16.70
2018-05-12T21:45:44.561Z,16.60
2018-05-12T21:48:12.824Z,16.50
2018-05-12T21:50:41.239Z,16.50
2018-05-12T21:53:08.722Z,16.50
2018-05-12T21:55:36.331Z,16.50
